Terminal Aerodrome Forecast
Issued by NWS

Current Version | Previous Version | Graphics & Text | Print | Product List | Glossary On
Versions: 1 2 3 4 5 6 7 8 9 10 11 12 13 14 15 16 17 18 19 20 21 22
000
FTUS41 KPBZ 250918 AAA
TAFHLG
TAF AMD
KHLG 250918Z 2509/2606 04006KT P6SM OVC060
     FM251100 06003KT P6SM OVC030
     FM251600 32007KT P6SM VCSH OVC020
     FM252000 32011KT P6SM VCSH OVC008
     FM252300 32011KT P6SM BKN015=

USA.gov is the U.S. government's official web portal to all federal, state and local government web resources and services.